createdAt,value
2022-11-06T00:03:48.543Z,96.66
2022-11-06T00:08:51.852Z,96.70
2022-11-06T00:13:55.266Z,96.68
2022-11-06T00:19:02.586Z,96.75
2022-11-06T00:24:07.717Z,96.75
2022-11-06T00:29:14.975Z,96.62
2022-11-06T00:34:18.243Z,96.67
2022-11-06T00:39:21.651Z,96.55
2022-11-06T00:44:24.961Z,96.73
2022-11-06T00:49:28.782Z,96.64
2022-11-06T00:54:32.098Z,96.82
2022-11-06T00:59:35.507Z,96.71
2022-11-06T01:04:38.920Z,96.49
2022-11-06T01:09:42.350Z,96.48
2022-11-06T01:14:45.752Z,96.89
2022-11-06T01:19:49.057Z,96.87
2022-11-06T01:24:52.443Z,96.62
2022-11-06T01:29:57.118Z,96.56
2022-11-06T01:35:00.219Z,96.75
2022-11-06T01:40:05.167Z,96.90
2022-11-06T01:45:24.462Z,96.74
2022-11-06T01:50:27.969Z,97.18
2022-11-06T01:55:38.344Z,97.16
2022-11-06T02:00:42.485Z,97.23
2022-11-06T02:05:46.399Z,97.02
2022-11-06T02:10:50.874Z,96.78
2022-11-06T02:16:02.851Z,96.64
2022-11-06T02:21:20.702Z,96.69
2022-11-06T02:26:45.416Z,96.84
2022-11-06T02:31:52.413Z,96.95
2022-11-06T02:37:04.938Z,97.09
2022-11-06T02:42:12.446Z,97.05
2022-11-06T02:47:19.343Z,96.86
2022-11-06T02:52:29.536Z,97.03
2022-11-06T02:57:38.251Z,96.72
2022-11-06T03:02:59.609Z,97.01
2022-11-06T03:08:12.358Z,97.04
2022-11-06T03:13:24.641Z,96.87
2022-11-06T03:18:40.954Z,96.95
2022-11-06T03:23:56.246Z,96.96
2022-11-06T03:29:40.008Z,96.78
2022-11-06T03:34:51.917Z,97.05
2022-11-06T03:40:00.968Z,97.25
2022-11-06T03:45:10.902Z,97.25
2022-11-06T03:50:26.530Z,97.27
2022-11-06T03:55:36.193Z,97.15
2022-11-06T04:00:42.132Z,96.82
2022-11-06T04:05:52.435Z,96.99
2022-11-06T04:11:18.993Z,97.09
2022-11-06T04:16:23.831Z,97.06
2022-11-06T04:21:30.021Z,97.15
2022-11-06T04:26:40.700Z,97.21
2022-11-06T04:31:46.780Z,97.29
2022-11-06T04:37:01.455Z,97.34
2022-11-06T04:42:24.935Z,97.43
2022-11-06T04:47:29.380Z,97.50
2022-11-06T04:52:34.017Z,97.76
2022-11-06T04:57:37.327Z,97.66
2022-11-06T05:02:41.150Z,97.34
2022-11-06T05:07:44.462Z,97.42
2022-11-06T05:12:48.303Z,97.58
2022-11-06T05:17:51.700Z,97.70
2022-11-06T05:23:01.210Z,97.58
2022-11-06T05:28:09.508Z,97.66
2022-11-06T05:33:12.790Z,97.65
2022-11-06T05:38:16.305Z,97.90
2022-11-06T05:43:19.924Z,97.88
2022-11-06T05:48:23.339Z,98.24
2022-11-06T05:53:26.751Z,98.32
2022-11-06T05:58:30.269Z,98.34
2022-11-06T06:03:33.577Z,98.52
2022-11-06T06:08:37.195Z,98.61
2022-11-06T06:13:40.508Z,98.73
2022-11-06T06:18:44.021Z,98.83
2022-11-06T06:23:47.536Z,98.76
2022-11-06T06:28:50.847Z,99.07
2022-11-06T06:33:54.263Z,99.06
2022-11-06T06:38:57.572Z,99.15
2022-11-06T06:44:00.981Z,99.08
2022-11-06T06:49:05.107Z,99.30
2022-11-06T06:54:08.835Z,99.18
2022-11-06T06:59:12.157Z,99.46
2022-11-06T07:04:15.456Z,99.12
2022-11-06T07:09:19.283Z,99.28
2022-11-06T07:14:22.691Z,99.46
2022-11-06T07:19:26.009Z,99.21
2022-11-06T07:24:29.517Z,99.27
2022-11-06T07:29:32.932Z,99.20
2022-11-06T07:34:39.217Z,99.28
2022-11-06T07:39:42.565Z,99.05
2022-11-06T07:44:46.140Z,99.14
2022-11-06T07:49:51.150Z,99.21
2022-11-06T07:54:54.809Z,99.31
2022-11-06T07:59:58.325Z,99.42
2022-11-06T08:05:02.577Z,99.10
2022-11-06T08:10:06.585Z,99.01
2022-11-06T08:15:10.714Z,99.15
2022-11-06T08:20:14.130Z,99.67
2022-11-06T08:25:17.849Z,99.32
2022-11-06T08:30:21.362Z,99.62
2022-11-06T08:35:24.674Z,99.49
2022-11-06T08:40:31.126Z,99.43
2022-11-06T08:45:43.394Z,99.06
2022-11-06T08:50:46.791Z,99.49
2022-11-06T08:55:50.211Z,99.67
2022-11-06T09:00:53.810Z,99.69
2022-11-06T09:05:57.545Z,99.60
2022-11-06T09:11:00.956Z,98.73
2022-11-06T09:16:04.984Z,98.91
2022-11-06T09:21:09.044Z,98.58
2022-11-06T09:26:12.323Z,98.80
2022-11-06T09:31:15.735Z,99.00
2022-11-06T09:36:19.049Z,98.61
2022-11-06T09:41:37.818Z,98.52
2022-11-06T09:46:46.073Z,98.68
2022-11-06T09:51:57.551Z,98.40
2022-11-06T09:57:30.042Z,98.23
2022-11-06T10:02:48.766Z,97.95
2022-11-06T10:07:56.583Z,98.05
2022-11-06T10:13:37.834Z,97.89
2022-11-06T10:19:24.867Z,97.67
2022-11-06T10:24:45.075Z,97.29
2022-11-06T10:29:57.502Z,97.60
2022-11-06T10:35:06.851Z,97.33
2022-11-06T10:40:18.970Z,97.67
2022-11-06T10:45:24.222Z,97.14
2022-11-06T10:50:37.572Z,97.32
2022-11-06T10:56:11.159Z,97.06
2022-11-06T11:01:15.608Z,96.78
2022-11-06T11:06:18.941Z,97.27
2022-11-06T11:11:27.271Z,97.72
2022-11-06T11:16:35.989Z,97.64
2022-11-06T11:21:39.320Z,97.47
2022-11-06T11:26:48.801Z,97.60
2022-11-06T11:31:56.284Z,97.56
2022-11-06T11:37:03.118Z,97.52
2022-11-06T11:42:26.558Z,97.32
2022-11-06T11:47:29.888Z,96.79
2022-11-06T11:52:33.180Z,96.28
2022-11-06T11:57:36.591Z,95.96
2022-11-06T12:02:46.284Z,95.94
2022-11-06T12:07:56.539Z,95.76
2022-11-06T12:13:04.139Z,95.42
2022-11-06T12:18:13.183Z,94.93
2022-11-06T12:23:32.466Z,94.70
2022-11-06T12:28:40.247Z,94.46
2022-11-06T12:34:06.613Z,94.01
2022-11-06T12:39:20.083Z,93.59
2022-11-06T12:44:23.499Z,92.60
2022-11-06T12:49:36.432Z,92.60
2022-11-06T12:55:11.701Z,92.78
2022-11-06T13:00:31.270Z,92.13
2022-11-06T13:05:47.805Z,91.56
2022-11-06T13:11:13.439Z,91.43
2022-11-06T13:16:20.846Z,91.30
2022-11-06T13:21:58.872Z,91.13
2022-11-06T13:27:39.764Z,90.88
2022-11-06T13:32:53.518Z,90.19
2022-11-06T13:37:58.058Z,90.16
2022-11-06T13:43:10.173Z,89.77
2022-11-06T13:48:44.819Z,89.59
2022-11-06T13:54:29.501Z,89.03
2022-11-06T13:59:41.618Z,88.92
2022-11-06T14:05:22.716Z,88.79
2022-11-06T14:10:34.522Z,88.79
2022-11-06T14:15:42.149Z,88.76
2022-11-06T14:20:45.446Z,88.36
2022-11-06T14:26:00.634Z,88.28
2022-11-06T14:31:13.995Z,88.05
2022-11-06T14:36:24.665Z,88.37
2022-11-06T14:41:34.155Z,88.41
2022-11-06T14:46:37.738Z,88.23
2022-11-06T14:51:41.870Z,87.74
2022-11-06T14:56:52.347Z,87.89
2022-11-06T15:02:06.100Z,87.92
2022-11-06T15:07:58.304Z,87.95
2022-11-06T15:13:17.149Z,87.83
2022-11-06T15:18:23.769Z,87.67
2022-11-06T15:23:31.641Z,87.78
2022-11-06T15:29:18.371Z,87.67
2022-11-06T15:34:25.162Z,87.83
2022-11-06T15:39:48.338Z,87.64
2022-11-06T15:44:52.468Z,87.35
2022-11-06T15:50:22.553Z,87.37
2022-11-06T15:55:27.973Z,87.51
2022-11-06T16:00:37.020Z,87.48
2022-11-06T16:05:41.039Z,87.75
2022-11-06T16:10:48.367Z,87.63
2022-11-06T16:15:54.527Z,87.96
2022-11-06T16:21:21.180Z,87.68
2022-11-06T16:26:24.390Z,87.61
2022-11-06T16:31:30.462Z,87.83
2022-11-06T16:36:59.887Z,87.88
2022-11-06T16:42:03.915Z,87.85
2022-11-06T16:47:10.259Z,87.77
2022-11-06T16:52:39.381Z,87.98
2022-11-06T16:57:53.168Z,88.04
2022-11-06T17:03:00.874Z,88.09
2022-11-06T17:08:20.602Z,88.02
2022-11-06T17:13:26.280Z,88.25
2022-11-06T17:18:34.572Z,88.39
2022-11-06T17:23:37.988Z,88.22
2022-11-06T17:28:41.404Z,88.33
2022-11-06T17:33:45.530Z,88.14
2022-11-06T17:38:49.759Z,88.31
2022-11-06T17:43:53.071Z,88.32
2022-11-06T17:48:56.836Z,88.28
2022-11-06T17:54:00.612Z,88.29
2022-11-06T17:59:04.237Z,88.22
2022-11-06T18:04:07.853Z,88.33
2022-11-06T18:09:11.471Z,88.46
2022-11-06T18:14:15.293Z,88.61
2022-11-06T18:19:21.877Z,88.61
2022-11-06T18:24:25.291Z,88.61
2022-11-06T18:29:28.605Z,88.81
2022-11-06T18:34:32.118Z,88.79
2022-11-06T18:39:35.429Z,88.75
2022-11-06T18:44:41.609Z,88.87
2022-11-06T18:49:44.920Z,89.02
2022-11-06T18:54:49.148Z,89.18
2022-11-06T18:59:55.941Z,89.10
2022-11-06T19:05:00.167Z,89.25
2022-11-06T19:10:04.278Z,89.19
2022-11-06T19:15:08.437Z,89.22
2022-11-06T19:20:14.912Z,89.06
2022-11-06T19:25:20.073Z,89.01
2022-11-06T19:30:23.447Z,88.73
2022-11-06T19:35:27.311Z,88.89
2022-11-06T19:40:30.865Z,89.02
2022-11-06T19:45:35.263Z,89.07
2022-11-06T19:50:58.803Z,89.05
2022-11-06T19:56:10.658Z,89.29
2022-11-06T20:01:17.184Z,89.24
2022-11-06T20:06:22.296Z,89.16
2022-11-06T20:11:30.711Z,89.27
2022-11-06T20:16:35.061Z,89.25
2022-11-06T20:21:38.376Z,89.27
2022-11-06T20:26:42.092Z,89.31
2022-11-06T20:31:45.824Z,89.31
2022-11-06T20:36:49.227Z,89.57
2022-11-06T20:41:55.819Z,89.72
2022-11-06T20:46:59.533Z,89.83
2022-11-06T20:52:17.788Z,89.88
2022-11-06T20:57:21.312Z,89.83
2022-11-06T21:02:25.082Z,90.05
2022-11-06T21:07:30.012Z,90.04
2022-11-06T21:12:35.553Z,90.09
2022-11-06T21:17:42.950Z,90.39
2022-11-06T21:22:47.287Z,90.43
2022-11-06T21:27:50.453Z,90.36
2022-11-06T21:32:53.805Z,90.30
2022-11-06T21:37:57.832Z,90.46
2022-11-06T21:43:01.450Z,90.49
2022-11-06T21:48:10.963Z,90.46
2022-11-06T21:53:42.789Z,90.53
2022-11-06T21:58:51.158Z,90.64
2022-11-06T22:03:55.311Z,90.84
2022-11-06T22:09:01.467Z,90.75
2022-11-06T22:14:08.355Z,90.70
2022-11-06T22:19:13.746Z,90.87
2022-11-06T22:24:17.397Z,90.76
2022-11-06T22:29:24.088Z,90.82
2022-11-06T22:34:27.602Z,90.95
2022-11-06T22:39:31.016Z,91.13
2022-11-06T22:44:35.760Z,91.05
2022-11-06T22:49:39.890Z,91.08
2022-11-06T22:54:43.201Z,91.17
2022-11-06T22:59:46.617Z,91.16
2022-11-06T23:04:50.029Z,91.35
2022-11-06T23:09:53.340Z,91.30
2022-11-06T23:14:58.903Z,91.41
2022-11-06T23:20:03.134Z,91.57
2022-11-06T23:25:11.565Z,91.74
2022-11-06T23:30:15.592Z,91.80
2022-11-06T23:35:22.585Z,91.74
2022-11-06T23:40:26.822Z,91.82
2022-11-06T23:45:48.770Z,91.39
2022-11-06T23:50:52.284Z,91.58
2022-11-06T23:55:55.802Z,91.47
